Terminal Aerodrome Forecast
Issued by NWS

Home | Current Version | Previous Version | Text Only | Print | Product List | Glossary On
Versions: 1 2 3 4 5 6 7 8 9 10 11 12 13 14 15 16 17 18 19 20 21 22 23 24 25 26 27 28 29
000
FTUS41 KBUF 231100
TAFJHW
TAF
KJHW 231134Z 2312/2412 19007KT P6SM OVC040
     FM231500 19011KT P6SM VCSH OVC035
     FM231700 18012KT P6SM OVC050
     FM240100 15018KT P6SM BKN110 WS020/17045KT
     FM240300 16020KT P6SM VCSH OVC035 WS020/17050KT
     FM240600 15020KT P6SM -RA OVC015 WS020/16055KT
     FM241100 18021G30KT P6SM -RA OVC015 WS020/20050KT
      AMD LTD TO CLD VIS AND WIND=

USA.gov is the U.S. government's official web portal to all federal, state and local government web resources and services.